Dades meteomassalio
Diari Summary for Juliol 6, 2017 Units:  English    Metric   Both
« Previous Day
Next Day »
Diari Semanal Mensual Anual Personalitzat
  Maxima: Minima: Mijana:
Temperatura: TemperatureC °F 21.3 °F 27.2 °F
Rosada: DewpointC °F 12.8 °F 16.3 °F
Humitat: Humidity % 26 % 53 %
Velocitat del vent: WindSpeedKMH mph 0.0 mph 5.7 mph
Racha vent: WindSpeedGustKMH mph - -
Vent:- - SSE
Pressio: PressurehPa in 1014.1 in -
Pluja: 0.0 in    
Historical Graphs
 
 
Tabular Data for Juliol 6, 2017
Time Temperature Dew Point Pressure Wind Wind Speed Wind Gust Humidity Rainfall Rate (Hourly) solar Conditions
TemperatureC °F DewpointC °F PressurehPa in Calm     Humidity % HourlyPrecipMM in SolarRadiationWatts/m^2 W/m2 Conditions
00:02 25.1 °F 14.8 °F 1014.8 in ESE 9.3 mph 9.3 mph 53 % 0.0 in 0.0 W/m2 CLR
00:07 25.0 °F 15.1 °F 1014.8 in ESE 9.7 mph 9.7 mph 54 % 0.0 in 0.0 W/m2 CLR
00:12 24.8 °F 14.9 °F 1014.8 in East 7.4 mph 7.4 mph 54 % 0.0 in 0.0 W/m2 CLR
00:17 24.7 °F 15.0 °F 1014.8 in Calm     55 % 0.0 in 0.0 W/m2 CLR
00:22 24.4 °F 14.8 °F 1014.8 in Calm     55 % 0.0 in 0.0 W/m2 CLR
00:27 24.5 °F 14.9 °F 1014.8 in East 3.7 mph   55 % 0.0 in 0.0 W/m2 CLR
00:32 24.6 °F 14.9 °F 1014.8 in Calm     55 % 0.0 in 0.0 W/m2 CLR
00:37 24.7 °F 15.1 °F 1014.4 in ESE 7.4 mph 7.4 mph 55 % 0.0 in 0.0 W/m2 CLR
00:42 24.8 °F 15.1 °F 1014.8 in East 5.6 mph 5.6 mph 55 % 0.0 in 0.0 W/m2 CLR
00:47 24.7 °F 15.1 °F 1014.8 in ENE 7.4 mph 7.4 mph 55 % 0.0 in 0.0 W/m2 CLR
00:52 24.6 °F 15.2 °F 1014.8 in ENE 5.6 mph 5.6 mph 56 % 0.0 in 0.0 W/m2 CLR
00:57 24.6 °F 15.2 °F 1015.1 in East 6.4 mph 6.4 mph 56 % 0.0 in 0.0 W/m2 CLR
01:02 24.7 °F 15.3 °F 1015.1 in ESE 11.1 mph 11.1 mph 56 % 0.0 in 0.0 W/m2 CLR
01:07 24.7 °F 15.3 °F 1015.1 in East 13.0 mph 13.0 mph 56 % 0.0 in 0.0 W/m2 CLR
01:12 24.6 °F 15.5 °F 1015.8 in ENE 8.0 mph 8.0 mph 57 % 0.0 in 0.0 W/m2 CLR
01:17 24.5 °F 15.7 °F 1015.8 in ENE 5.6 mph   58 % 0.0 in 0.0 W/m2 CLR
01:22 24.4 °F 15.4 °F 1015.8 in Calm     57 % 0.0 in 0.0 W/m2 CLR
01:27 24.6 °F 14.9 °F 1016.1 in Calm     55 % 0.0 in 0.0 W/m2 CLR
01:32 24.8 °F 14.8 °F 1016.5 in Calm     54 % 0.0 in 0.0 W/m2 CLR
01:37 24.8 °F 15.4 °F 1016.5 in NW 11.3 mph 11.3 mph 56 % 0.0 in 0.0 W/m2 CLR
01:42 24.5 °F 15.4 °F 1016.5 in NNW 9.3 mph 9.3 mph 57 % 0.0 in 0.0 W/m2 CLR
01:47 24.4 °F 15.1 °F 1016.5 in Calm     56 % 0.0 in 0.0 W/m2 CLR
01:52 24.3 °F 15.6 °F 1016.8 in Calm     58 % 0.0 in 0.0 W/m2 CLR
01:57 24.2 °F 15.7 °F 1016.8 in Calm     59 % 0.0 in 0.0 W/m2 CLR
02:02 24.0 °F 15.8 °F 1016.5 in Calm     60 % 0.0 in 0.0 W/m2 CLR
02:07 23.9 °F 16.2 °F 1016.1 in Calm     62 % 0.0 in 0.0 W/m2 CLR
02:12 23.8 °F 16.6 °F 1016.1 in Calm     64 % 0.0 in 0.0 W/m2 CLR
02:17 23.7 °F 16.9 °F 1016.1 in Calm     66 % 0.0 in 0.0 W/m2 CLR
02:22 23.5 °F 17.0 °F 1016.1 in Calm     67 % 0.0 in 0.0 W/m2 CLR
02:27 23.3 °F 17.3 °F 1016.1 in Calm     69 % 0.0 in 0.0 W/m2 CLR
02:32 23.1 °F 17.6 °F 1016.5 in Calm     71 % 0.0 in 0.0 W/m2 CLR
02:37 23.0 °F 17.4 °F 1016.1 in Calm     71 % 0.0 in 0.0 W/m2 CLR
02:42 22.9 °F 17.4 °F 1016.1 in Calm     71 % 0.0 in 0.0 W/m2 CLR
02:47 22.9 °F 17.4 °F 1015.8 in Calm     71 % 0.0 in 0.0 W/m2 CLR
02:52 22.9 °F 17.4 °F 1015.5 in Calm     71 % 0.0 in 0.0 W/m2 CLR
02:57 22.8 °F 17.5 °F 1014.8 in Calm   0.3 mph 72 % 0.0 in 0.0 W/m2 CLR
03:03 22.7 °F 17.6 °F 1014.8 in East 5.6 mph 5.6 mph 73 % 0.0 in 0.0 W/m2 CLR
03:08 22.7 °F 17.8 °F 1014.8 in ENE 5.6 mph 5.6 mph 74 % 0.0 in 0.0 W/m2 CLR
03:13 22.7 °F 17.8 °F 1015.1 in East 11.3 mph 11.3 mph 74 % 0.0 in 0.0 W/m2 CLR
03:18 22.7 °F 17.8 °F 1015.1 in NE 5.6 mph 5.6 mph 74 % 0.0 in 0.0 W/m2 CLR
03:23 22.6 °F 17.7 °F 1015.1 in Calm     74 % 0.0 in 0.0 W/m2 CLR
03:28 22.6 °F 17.7 °F 1014.8 in Calm     74 % 0.0 in 0.0 W/m2 CLR
03:33 22.6 °F 17.9 °F 1014.8 in Calm     75 % 0.0 in 0.0 W/m2 CLR
03:38 22.5 °F 17.8 °F 1014.8 in Calm     75 % 0.0 in 0.0 W/m2 CLR
03:43 22.5 °F 17.8 °F 1014.8 in Calm     75 % 0.0 in 0.0 W/m2 CLR
03:48 22.4 °F 17.8 °F 1014.4 in East 5.6 mph 5.6 mph 75 % 0.0 in 0.0 W/m2 CLR
03:53 22.4 °F 17.6 °F 1014.1 in Calm     74 % 0.0 in 0.0 W/m2 CLR
03:58 22.4 °F 17.6 °F 1014.4 in Calm     74 % 0.0 in 0.0 W/m2 CLR
04:03 22.4 °F 17.5 °F 1014.4 in Calm     74 % 0.0 in 0.0 W/m2 CLR
04:08 22.3 °F 17.4 °F 1014.4 in Calm     74 % 0.0 in 0.0 W/m2 CLR
04:13 22.3 °F 17.4 °F 1014.4 in Calm     74 % 0.0 in 0.0 W/m2 CLR
04:18 22.2 °F 17.4 °F 1014.8 in Calm     74 % 0.0 in 0.0 W/m2 CLR
04:23 22.2 °F 17.4 °F 1014.4 in Calm     74 % 0.0 in 0.0 W/m2 CLR
04:28 22.2 °F 17.4 °F 1014.8 in Calm     74 % 0.0 in 0.0 W/m2 CLR
04:33 22.2 °F 17.4 °F 1014.8 in Calm     74 % 0.0 in 0.0 W/m2 CLR
04:38 22.3 °F 17.4 °F 1014.4 in Calm     74 % 0.0 in 0.0 W/m2 CLR
04:43 22.3 °F 17.4 °F 1014.4 in Calm     74 % 0.0 in 0.0 W/m2 CLR
04:48 22.3 °F 17.4 °F 1014.4 in Calm     74 % 0.0 in 0.0 W/m2 CLR
04:53 22.2 °F 17.4 °F 1014.4 in Calm     74 % 0.0 in 0.0 W/m2 CLR
04:58 22.2 °F 17.5 °F 1014.4 in Calm     75 % 0.0 in 0.0 W/m2 CLR
05:03 22.1 °F 17.4 °F 1014.8 in Calm     75 % 0.0 in 0.0 W/m2 CLR
05:08 22.0 °F 17.6 °F 1014.8 in Calm     76 % 0.0 in 0.0 W/m2 CLR
05:13 21.9 °F 17.5 °F 1015.1 in Calm     76 % 0.0 in 0.0 W/m2 CLR
05:18 21.9 °F 17.4 °F 1015.1 in Calm     76 % 0.0 in 0.0 W/m2 CLR
05:23 21.8 °F 17.4 °F 1015.1 in Calm     76 % 0.0 in 0.0 W/m2 CLR
05:28 21.8 °F 17.3 °F 1015.1 in Calm     76 % 0.0 in 0.0 W/m2 CLR
05:33 21.8 °F 17.6 °F 1015.1 in Calm     77 % 0.0 in 0.0 W/m2 CLR
05:38 21.7 °F 17.5 °F 1015.5 in Calm     77 % 0.0 in 0.0 W/m2 CLR
05:43 21.6 °F 17.2 °F 1015.1 in Calm     76 % 0.0 in 0.0 W/m2 CLR
05:48 21.5 °F 17.3 °F 1015.1 in Calm     77 % 0.0 in 0.0 W/m2 CLR
05:53 21.5 °F 17.3 °F 1015.5 in Calm     77 % 0.0 in 0.0 W/m2 CLR
05:58 21.6 °F 17.2 °F 1015.5 in SW 8.0 mph 8.0 mph 76 % 0.0 in 0.0 W/m2 CLR
06:03 21.6 °F 17.3 °F 1015.1 in Calm     77 % 0.0 in 0.0 W/m2 CLR
06:08 21.6 °F 17.2 °F 1015.1 in Calm     76 % 0.0 in 0.0 W/m2 CLR
06:13 21.7 °F 17.3 °F 1015.1 in Calm     76 % 0.0 in 0.0 W/m2 CLR
06:18 21.7 °F 17.3 °F 1015.1 in Calm     76 % 0.0 in 0.0 W/m2 CLR
06:23 21.6 °F 17.2 °F 1015.1 in Calm     76 % 0.0 in 0.0 W/m2 OVC
06:28 21.6 °F 17.2 °F 1015.1 in Calm     76 % 0.0 in 0.0 W/m2 OVC
06:33 21.5 °F 17.3 °F 1015.1 in Calm     77 % 0.0 in 0.0 W/m2 OVC
06:38 21.4 °F 17.4 °F 1015.5 in West 5.6 mph 5.6 mph 78 % 0.0 in 0.0 W/m2 OVC
06:43 21.3 °F 17.6 °F 1015.5 in Calm     79 % 0.0 in 0.0 W/m2 OVC
06:48 21.3 °F 17.6 °F 1015.5 in Calm     79 % 0.0 in 0.0 W/m2 OVC
06:53 21.3 °F 17.6 °F 1015.5 in Calm     79 % 0.0 in 5.0 W/m2 OVC
06:58 21.4 °F 17.6 °F 1015.8 in Calm     79 % 0.0 in 7.0 W/m2 BKN
07:03 21.4 °F 17.6 °F 1015.5 in Calm     79 % 0.0 in 9.0 W/m2 BKN
07:08 21.4 °F 17.6 °F 1015.8 in WSW 6.4 mph 6.4 mph 79 % 0.0 in 12.0 W/m2 BKN
07:13 21.6 °F 17.3 °F 1015.8 in WSW 5.6 mph 5.6 mph 77 % 0.0 in 14.0 W/m2 BKN
07:18 21.8 °F 17.4 °F 1016.5 in NW 7.4 mph 7.4 mph 76 % 0.0 in 16.0 W/m2 BKN
07:28 22.4 °F 16.9 °F 1016.5 in North 1.9 mph   71 % 0.0 in 40.0 W/m2 BKN
07:33 22.7 °F 16.9 °F 1017.2 in NW 16.7 mph 16.7 mph 70 % 0.0 in 58.0 W/m2 SCT
07:35 22.8 °F 17.0 °F 1016.8 in WNW 5.6 mph 5.6 mph 70 % 0.0 in 63.0 W/m2 SCT
07:40 22.8 °F 17.1 °F 1017.5 in Calm     70 % 0.0 in 54.0 W/m2 SCT
07:45 22.9 °F 17.1 °F 1017.2 in Calm     70 % 0.0 in 53.0 W/m2 SCT
07:50 22.9 °F 17.3 °F 1017.8 in WNW 14.8 mph 14.8 mph 71 % 0.0 in 69.0 W/m2 SCT
07:55 22.8 °F 17.5 °F 1017.8 in WNW 9.7 mph 9.7 mph 72 % 0.0 in 88.0 W/m2 FEW
08:00 22.8 °F 17.5 °F 1017.8 in Calm     72 % 0.0 in 102.0 W/m2 FEW
08:05 22.9 °F 17.6 °F 1017.8 in Calm     72 % 0.0 in 118.0 W/m2 CLR
08:10 23.0 °F 17.7 °F 1018.2 in Calm     72 % 0.0 in 149.0 W/m2 CLR
08:15 23.3 °F 17.7 °F 1017.8 in Calm     71 % 0.0 in 218.0 W/m2 CLR
08:20 23.5 °F 17.7 °F 1018.2 in West 7.4 mph 7.4 mph 70 % 0.0 in 214.0 W/m2 CLR
08:25 23.7 °F 17.9 °F 1017.8 in West 9.3 mph 9.3 mph 70 % 0.0 in 295.0 W/m2 CLR
08:30 23.9 °F 17.8 °F 1017.5 in Calm     69 % 0.0 in 309.0 W/m2 CLR
08:35 24.2 °F 17.9 °F 1017.5 in Calm     68 % 0.0 in 304.0 W/m2 CLR
08:40 24.6 °F 18.0 °F 1017.5 in Calm     67 % 0.0 in 281.0 W/m2 CLR
08:45 24.9 °F 18.1 °F 1017.5 in Calm     66 % 0.0 in 281.0 W/m2 CLR
08:50 25.1 °F 17.8 °F 1017.5 in Calm     64 % 0.0 in 209.0 W/m2 CLR
08:55 25.1 °F 17.6 °F 1017.5 in SSW 6.4 mph 6.4 mph 63 % 0.0 in 132.0 W/m2 CLR
09:00 25.2 °F 17.4 °F 1017.5 in SW 9.3 mph 9.3 mph 62 % 0.0 in 142.0 W/m2 CLR
09:05 25.2 °F 17.4 °F 1017.5 in Calm     62 % 0.0 in 163.0 W/m2 CLR
09:10 25.3 °F 17.3 °F 1017.5 in SSW 11.1 mph 11.1 mph 61 % 0.0 in 174.0 W/m2 CLR
09:15 25.6 °F 17.2 °F 1017.5 in SW 9.3 mph 9.3 mph 60 % 0.0 in 172.0 W/m2 CLR
09:20 25.7 °F 17.4 °F 1017.5 in SSW 7.4 mph 7.4 mph 60 % 0.0 in 188.0 W/m2 CLR
09:25 25.9 °F 17.0 °F 1017.5 in SW 5.6 mph 5.6 mph 58 % 0.0 in 218.0 W/m2 CLR
09:30 26.2 °F 17.0 °F 1017.5 in SW 1.9 mph 1.9 mph 57 % 0.0 in 221.0 W/m2 CLR
09:35 26.4 °F 17.2 °F 1017.2 in Calm     57 % 0.0 in 218.0 W/m2 CLR
09:40 26.8 °F 17.0 °F 1017.2 in Calm     55 % 0.0 in 264.0 W/m2 CLR
09:45 27.1 °F 16.7 °F 1017.2 in Calm     53 % 0.0 in 255.0 W/m2 CLR
09:50 27.4 °F 16.7 °F 1017.2 in Calm     52 % 0.0 in 251.0 W/m2 CLR
09:55 27.7 °F 16.7 °F 1017.2 in Calm     51 % 0.0 in 288.0 W/m2 CLR
10:00 28.2 °F 15.8 °F 1017.2 in Calm     47 % 0.0 in 603.0 W/m2 CLR
10:05 28.5 °F 15.8 °F 1017.2 in Calm     46 % 0.0 in 281.0 W/m2 CLR
10:15 29.1 °F 15.6 °F 1017.2 in Calm     44 % 0.0 in 626.0 W/m2 CLR
10:20 29.4 °F 15.6 °F 1016.8 in Calm     43 % 0.0 in 747.0 W/m2 CLR
10:25 29.7 °F 15.4 °F 1016.8 in Calm     42 % 0.0 in 397.0 W/m2 CLR
10:30 30.0 °F 14.9 °F 1016.8 in NW 5.6 mph   40 % 0.0 in 345.0 W/m2 CLR
10:35 30.3 °F 16.7 °F 1016.8 in NE 5.6 mph 5.6 mph 44 % 0.0 in 278.0 W/m2 CLR
10:40 30.1 °F 16.8 °F 1016.8 in NE 14.8 mph 14.8 mph 45 % 0.0 in 285.0 W/m2 CLR
10:45 29.5 °F 17.7 °F 1016.8 in NE 16.7 mph 16.7 mph 49 % 0.0 in 330.0 W/m2 CLR
10:50 29.3 °F 17.8 °F 1016.8 in ENE 11.1 mph 11.1 mph 50 % 0.0 in 594.0 W/m2 CLR
10:57 29.6 °F 18.1 °F 1016.8 in NE 11.1 mph 11.1 mph 50 % 0.0 in 675.0 W/m2 CLR
11:02 29.8 °F 17.9 °F 1016.5 in NE 11.1 mph 11.1 mph 49 % 0.0 in 684.0 W/m2 CLR
11:03 29.9 °F 18.0 °F 1016.5 in East 9.3 mph 9.3 mph 49 % 0.0 in 686.0 W/m2 CLR
11:07 30.0 °F 17.4 °F 1016.5 in NE 9.3 mph 9.3 mph 47 % 0.0 in 705.0 W/m2 CLR
11:12 29.9 °F 17.1 °F 1016.5 in East 5.6 mph 5.6 mph 46 % 0.0 in 752.0 W/m2 CLR
11:14 30.1 °F 17.5 °F 1016.5 in ENE 4.8 mph 4.8 mph 47 % 0.0 in 686.0 W/m2 CLR
11:15 30.1 °F 17.2 °F 1016.5 in ENE 6.4 mph 6.4 mph 46 % 0.0 in 366.0 W/m2 CLR
11:19 30.2 °F 16.9 °F 1016.5 in Calm     45 % 0.0 in 578.0 W/m2 CLR
11:20 30.2 °F 16.9 °F 1016.5 in Calm     45 % 0.0 in 624.0 W/m2 CLR
11:21 30.3 °F 16.7 °F 1016.5 in Calm     44 % 0.0 in 624.0 W/m2 CLR
11:23 30.4 °F 16.8 °F 1016.5 in Calm     44 % 0.0 in 619.0 W/m2 CLR
11:24 30.4 °F 16.8 °F 1016.5 in Calm     44 % 0.0 in 599.0 W/m2 CLR
11:27 30.6 °F 16.9 °F 1016.5 in Calm     44 % 0.0 in 487.0 W/m2 CLR
11:28 30.6 °F 16.6 °F 1016.5 in Calm     43 % 0.0 in 450.0 W/m2 CLR
11:29 30.6 °F 16.6 °F 1016.1 in Calm     43 % 0.0 in 366.0 W/m2 CLR
11:31 30.5 °F 16.5 °F 1016.1 in ENE 3.7 mph 3.7 mph 43 % 0.0 in 299.0 W/m2 CLR
11:32 30.5 °F 16.1 °F 1016.1 in ENE 1.9 mph 1.9 mph 42 % 0.0 in 299.0 W/m2 CLR
11:37 30.3 °F 15.6 °F 1015.8 in Calm     41 % 0.0 in 250.0 W/m2 CLR
11:42 30.1 °F 15.7 °F 1015.8 in Calm     42 % 0.0 in 269.0 W/m2 CLR
11:47 30.1 °F 15.8 °F 1015.8 in Calm     42 % 0.0 in 378.0 W/m2 CLR
11:52 30.4 °F 16.1 °F 1016.1 in Calm     42 % 0.0 in 636.0 W/m2 CLR
11:57 30.8 °F 15.6 °F 1016.1 in Calm     40 % 0.0 in 591.0 W/m2 CLR
11:58 30.8 °F 15.3 °F 1016.1 in Calm     39 % 0.0 in 591.0 W/m2 CLR
12:03 31.2 °F 14.8 °F 1016.1 in Calm     37 % 0.0 in 563.0 W/m2 CLR
12:08 31.4 °F 14.6 °F 1016.1 in Calm     36 % 0.0 in 343.0 W/m2 CLR
12:13 31.6 °F 14.3 °F 1016.1 in Calm     35 % 0.0 in 432.0 W/m2 CLR
12:18 31.8 °F 14.4 °F 1016.1 in SE 9.7 mph 9.7 mph 35 % 0.0 in 550.0 W/m2 CLR
12:23 31.8 °F 14.5 °F 1016.1 in East 12.9 mph 12.9 mph 35 % 0.0 in 624.0 W/m2 CLR
12:28 31.7 °F 14.8 °F 1015.8 in ENE 3.2 mph 3.2 mph 36 % 0.0 in 564.0 W/m2 CLR
12:33 31.8 °F 14.5 °F 1015.8 in East 9.3 mph 9.3 mph 35 % 0.0 in 687.0 W/m2 CLR
12:38 32.2 °F 15.3 °F 1015.8 in ESE 1.9 mph 1.9 mph 36 % 0.0 in 540.0 W/m2 CLR
12:43 32.6 °F 14.7 °F 1015.8 in SE 16.7 mph 16.7 mph 34 % 0.0 in 895.0 W/m2 CLR
12:48 32.6 °F 14.2 °F 1015.8 in South 9.3 mph 9.3 mph 33 % 0.0 in 540.0 W/m2 CLR
12:53 32.4 °F 14.1 °F 1015.8 in ESE 14.8 mph 14.8 mph 33 % 0.0 in 290.0 W/m2 CLR
12:58 32.2 °F 13.9 °F 1015.8 in SE 11.3 mph 11.3 mph 33 % 0.0 in 214.0 W/m2 CLR
13:03 32.1 °F 13.3 °F 1016.1 in SE 6.4 mph 6.4 mph 32 % 0.0 in 167.0 W/m2 CLR
13:08 31.9 °F 13.2 °F 1015.8 in ESE 11.1 mph 11.1 mph 32 % 0.0 in 227.0 W/m2 CLR
13:13 32.0 °F 13.2 °F 1015.8 in SE 9.3 mph 9.3 mph 32 % 0.0 in 290.0 W/m2 CLR
13:18 32.0 °F 13.7 °F 1015.8 in Calm     33 % 0.0 in 244.0 W/m2 CLR
13:23 32.1 °F 13.3 °F 1015.5 in ENE 5.6 mph 5.6 mph 32 % 0.0 in 251.0 W/m2 CLR
13:28 32.2 °F 13.4 °F 1015.5 in ENE 1.9 mph   32 % 0.0 in 327.0 W/m2 CLR
13:33 32.3 °F 13.6 °F 1015.1 in ENE 1.9 mph 1.9 mph 32 % 0.0 in 371.0 W/m2 CLR
13:38 32.5 °F 13.7 °F 1015.1 in East 7.4 mph 7.4 mph 32 % 0.0 in 381.0 W/m2 CLR
13:43 32.4 °F 13.1 °F 1015.1 in East 9.3 mph 9.3 mph 31 % 0.0 in 452.0 W/m2 CLR
13:48 32.4 °F 13.1 °F 1015.1 in SE 5.6 mph 5.6 mph 31 % 0.0 in 575.0 W/m2 CLR
13:53 32.6 °F 12.8 °F 1015.1 in East 9.3 mph 9.3 mph 30 % 0.0 in 469.0 W/m2 CLR
13:58 32.8 °F 13.5 °F 1015.1 in ENE 5.6 mph   31 % 0.0 in 782.0 W/m2 CLR
14:03 33.3 °F 14.3 °F 1015.1 in East 9.3 mph 9.3 mph 32 % 0.0 in 1011.0 W/m2 CLR
14:08 33.5 °F 15.0 °F 1015.1 in East 13.0 mph 13.0 mph 33 % 0.0 in 615.0 W/m2 CLR
14:13 33.6 °F 14.7 °F 1015.1 in East 18.5 mph 18.5 mph 32 % 0.0 in 1192.0 W/m2 CLR
14:18 33.7 °F 14.7 °F 1015.1 in East 14.8 mph 14.8 mph 32 % 0.0 in 693.0 W/m2 CLR
14:23 33.4 °F 14.5 °F 1015.1 in East 20.4 mph 20.4 mph 32 % 0.0 in 881.0 W/m2 CLR
14:28 33.4 °F 14.9 °F 1015.1 in ESE 16.1 mph 16.1 mph 33 % 0.0 in 448.0 W/m2 CLR
14:33 33.7 °F 14.2 °F 1015.1 in ENE 18.5 mph 18.5 mph 31 % 0.0 in 958.0 W/m2 CLR
14:38 33.7 °F 14.7 °F 1015.1 in ESE 20.4 mph 20.4 mph 32 % 0.0 in 965.0 W/m2 CLR
14:43 33.8 °F 15.3 °F 1014.8 in East 14.8 mph 14.8 mph 33 % 0.0 in 935.0 W/m2 CLR
14:48 33.9 °F 14.4 °F 1014.8 in Calm     31 % 0.0 in 909.0 W/m2 CLR
14:53 34.1 °F 15.1 °F 1014.8 in SE 1.9 mph 1.9 mph 32 % 0.0 in 911.0 W/m2 CLR
14:58 34.2 °F 16.1 °F 1014.8 in SSW 7.4 mph 7.4 mph 34 % 0.0 in 895.0 W/m2 CLR
15:03 34.4 °F 15.8 °F 1014.8 in ENE 16.7 mph 16.7 mph 33 % 0.0 in 904.0 W/m2 CLR
15:08 34.6 °F 16.0 °F 1014.8 in East 8.0 mph 8.0 mph 33 % 0.0 in 911.0 W/m2 CLR
15:13 34.6 °F 15.0 °F 1014.8 in East 14.8 mph 14.8 mph 31 % 0.0 in 930.0 W/m2 CLR
15:18 34.6 °F 14.5 °F 1014.8 in ESE 14.8 mph 14.8 mph 30 % 0.0 in 958.0 W/m2 CLR
15:23 34.7 °F 14.1 °F 1014.8 in Calm     29 % 0.0 in 972.0 W/m2 CLR
15:28 34.7 °F 14.6 °F 1014.8 in East 5.6 mph 5.6 mph 30 % 0.0 in 418.0 W/m2 CLR
15:33 34.9 °F 15.3 °F 1014.8 in ENE 1.9 mph   31 % 0.0 in 418.0 W/m2 CLR
15:38 35.1 °F 13.8 °F 1014.8 in SSE 13.0 mph 13.0 mph 28 % 0.0 in 352.0 W/m2 CLR
15:43 34.8 °F 13.1 °F 1014.8 in ESE 13.0 mph 13.0 mph 27 % 0.0 in 434.0 W/m2 CLR
15:48 35.0 °F 13.2 °F 1014.8 in ESE 7.4 mph 7.4 mph 27 % 0.0 in 954.0 W/m2 CLR
15:53 35.3 °F 13.5 °F 1014.8 in ENE 18.5 mph 18.5 mph 27 % 0.0 in 503.0 W/m2 CLR
15:58 35.2 °F 13.4 °F 1014.4 in Calm     27 % 0.0 in 664.0 W/m2 CLR
16:03 35.4 °F 12.9 °F 1014.8 in SSE 13.0 mph 13.0 mph 26 % 0.0 in 838.0 W/m2 CLR
16:08 35.8 °F 13.3 °F 1014.8 in ESE 9.3 mph 9.3 mph 26 % 0.0 in 990.0 W/m2 CLR
16:13 35.7 °F 13.2 °F 1014.8 in SE 13.0 mph 13.0 mph 26 % 0.0 in 383.0 W/m2 CLR
16:18 35.4 °F 13.0 °F 1014.8 in SE 13.0 mph 13.0 mph 26 % 0.0 in 243.0 W/m2 CLR
16:23 35.2 °F 13.4 °F 1014.8 in SE 20.9 mph 20.9 mph 27 % 0.0 in 169.0 W/m2 CLR
16:28 34.7 °F 13.6 °F 1015.1 in SE 16.7 mph 16.7 mph 28 % 0.0 in 98.0 W/m2 CLR
16:33 34.6 °F 12.9 °F 1015.8 in SW 74.0 mph 74.0 mph 27 % 0.0 in 62.0 W/m2 CLR
16:38 30.9 °F 16.8 °F 1016.5 in NW 38.9 mph 38.9 mph 43 % 0.0 in 86.0 W/m2 FEW
16:43 28.9 °F 17.8 °F 1016.5 in NW 51.5 mph 51.5 mph 51 % 0.0 in 179.0 W/m2 FEW
16:48 27.7 °F 18.4 °F 1016.8 in NW 46.3 mph 46.3 mph 57 % 0.0 in 241.0 W/m2 CLR
16:53 27.2 °F 18.5 °F 1017.2 in NW 35.2 mph 35.2 mph 59 % 0.0 in 223.0 W/m2 CLR
16:58 27.3 °F 18.6 °F 1016.8 in NW 31.5 mph 31.5 mph 59 % 0.0 in 156.0 W/m2 CLR
17:04 27.4 °F 18.4 °F 1016.8 in NNW 31.5 mph 31.5 mph 58 % 0.0 in 113.0 W/m2 CLR
17:09 27.5 °F 18.2 °F 1016.8 in NW 33.3 mph 33.3 mph 57 % 0.0 in 127.0 W/m2 CLR
17:14 27.5 °F 18.2 °F 1016.8 in NW 31.5 mph 31.5 mph 57 % 0.0 in 269.0 W/m2 CLR
17:19 27.8 °F 17.7 °F 1016.5 in NW 30.6 mph 30.6 mph 54 % 0.0 in 316.0 W/m2 CLR
17:24 28.0 °F 17.5 °F 1016.5 in NNW 31.5 mph 31.5 mph 53 % 0.0 in 292.0 W/m2 CLR
17:29 27.9 °F 17.5 °F 1016.5 in NNW 38.9 mph 38.9 mph 53 % 0.0 in 227.0 W/m2 CLR
17:34 27.9 °F 17.5 °F 1016.1 in North 20.9 mph 20.9 mph 53 % 0.0 in 255.0 W/m2 CLR
17:39 27.9 °F 17.5 °F 1016.1 in NNW 16.7 mph 16.7 mph 53 % 0.0 in 418.0 W/m2 CLR
17:44 28.3 °F 17.5 °F 1016.5 in NNW 20.4 mph 20.4 mph 52 % 0.0 in 446.0 W/m2 CLR
17:49 28.5 °F 17.1 °F 1016.8 in NNW 22.5 mph 22.5 mph 50 % 0.0 in 302.0 W/m2 CLR
17:54 28.4 °F 17.3 °F 1016.8 in NW 20.4 mph 20.4 mph 51 % 0.0 in 710.0 W/m2 CLR
17:59 28.6 °F 17.1 °F 1016.8 in NNE 18.5 mph 18.5 mph 50 % 0.0 in 691.0 W/m2 CLR
18:04 28.8 °F 17.3 °F 1016.8 in Calm     50 % 0.0 in 385.0 W/m2 CLR
18:09 28.8 °F 17.4 °F 1016.8 in Calm     50 % 0.0 in 234.0 W/m2 CLR
18:14 28.7 °F 17.3 °F 1016.8 in NE 8.0 mph 8.0 mph 50 % 0.0 in 278.0 W/m2 CLR
18:19 28.7 °F 17.3 °F 1016.8 in NNE 3.7 mph 3.7 mph 50 % 0.0 in 223.0 W/m2 CLR
18:20 28.7 °F 17.3 °F 1016.8 in North 3.7 mph 3.7 mph 50 % 0.0 in 213.0 W/m2 CLR
18:25 28.8 °F 17.0 °F 1016.8 in Calm     49 % 0.0 in 213.0 W/m2 CLR
18:30 28.8 °F 17.1 °F 1016.5 in ENE 5.6 mph 5.6 mph 49 % 0.0 in 207.0 W/m2 CLR
18:35 29.0 °F 17.2 °F 1016.5 in Calm     49 % 0.0 in 555.0 W/m2 CLR
18:40 29.2 °F 17.1 °F 1016.1 in ENE 11.1 mph 11.1 mph 48 % 0.0 in 338.0 W/m2 CLR
18:45 29.0 °F 16.9 °F 1016.1 in Calm     48 % 0.0 in 181.0 W/m2 CLR
18:50 28.6 °F 16.5 °F 1016.1 in ENE 5.6 mph   48 % 0.0 in 178.0 W/m2 CLR
18:53 28.5 °F 16.1 °F 1015.8 in ENE 5.6 mph   47 % 0.0 in 186.0 W/m2 CLR
18:58 28.5 °F 16.4 °F 1015.8 in Calm     48 % 0.0 in 183.0 W/m2 CLR
19:03 28.5 °F 16.4 °F 1015.8 in NE 7.4 mph 7.4 mph 48 % 0.0 in 181.0 W/m2 CLR
19:08 28.5 °F 16.4 °F 1015.8 in Calm     48 % 0.0 in 134.0 W/m2 CLR
19:13 28.4 °F 16.7 °F 1015.8 in Calm     49 % 0.0 in 104.0 W/m2 CLR
19:18 28.5 °F 16.4 °F 1015.8 in ESE 6.4 mph 6.4 mph 48 % 0.0 in 102.0 W/m2 CLR
19:23 28.4 °F 16.4 °F 1015.8 in ESE 5.6 mph 5.6 mph 48 % 0.0 in 109.0 W/m2 CLR
19:28 28.5 °F 16.4 °F 1016.1 in Calm     48 % 0.0 in 123.0 W/m2 CLR
19:33 28.5 °F 16.7 °F 1016.1 in SSE 3.2 mph   49 % 0.0 in 135.0 W/m2 CLR
19:38 28.6 °F 16.8 °F 1015.8 in Calm     49 % 0.0 in 272.0 W/m2 CLR
19:43 28.6 °F 16.5 °F 1015.8 in SE 7.4 mph 7.4 mph 48 % 0.0 in 237.0 W/m2 CLR
19:48 28.6 °F 16.5 °F 1016.1 in ESE 5.6 mph 5.6 mph 48 % 0.0 in 221.0 W/m2 CLR
19:53 28.7 °F 16.6 °F 1016.1 in SE 5.6 mph 5.6 mph 48 % 0.0 in 211.0 W/m2 CLR
19:58 28.7 °F 16.3 °F 1015.8 in Calm     47 % 0.0 in 211.0 W/m2 CLR
20:03 28.8 °F 16.4 °F 1015.8 in Calm     47 % 0.0 in 218.0 W/m2 CLR
20:08 29.0 °F 16.6 °F 1015.8 in Calm     47 % 0.0 in 192.0 W/m2 CLR
20:13 29.1 °F 16.3 °F 1015.5 in ESE 16.7 mph 16.7 mph 46 % 0.0 in 139.0 W/m2 CLR
20:18 29.2 °F 16.3 °F 1015.5 in ESE 13.0 mph 13.0 mph 46 % 0.0 in 76.0 W/m2 CLR
20:23 29.2 °F 16.4 °F 1015.1 in East 16.1 mph 16.1 mph 46 % 0.0 in 69.0 W/m2 FEW
20:28 29.2 °F 16.7 °F 1014.8 in ESE 14.8 mph 14.8 mph 47 % 0.0 in 62.0 W/m2 FEW
20:33 29.1 °F 16.7 °F 1014.8 in East 11.1 mph 11.1 mph 47 % 0.0 in 53.0 W/m2 SCT
20:38 29.1 °F 16.7 °F 1014.8 in Calm     47 % 0.0 in 53.0 W/m2 SCT
20:43 29.1 °F 16.6 °F 1015.1 in Calm     47 % 0.0 in 40.0 W/m2 BKN
20:48 29.1 °F 16.7 °F 1015.1 in ENE 5.6 mph 5.6 mph 47 % 0.0 in 42.0 W/m2 BKN
20:53 29.1 °F 16.6 °F 1014.8 in Calm     47 % 0.0 in 37.0 W/m2 BKN
20:58 29.0 °F 16.9 °F 1015.1 in Calm     48 % 0.0 in 32.0 W/m2 BKN
21:03 28.9 °F 16.8 °F 1015.1 in Calm     48 % 0.0 in 21.0 W/m2 BKN
21:08 28.8 °F 16.7 °F 1014.8 in ENE 1.9 mph   48 % 0.0 in 16.0 W/m2 BKN
21:13 28.7 °F 16.9 °F 1015.1 in Calm     49 % 0.0 in 11.0 W/m2 BKN
21:18 28.6 °F 16.8 °F 1015.1 in Calm     49 % 0.0 in 7.0 W/m2 BKN
21:23 28.6 °F 16.8 °F 1015.1 in East 9.3 mph 9.3 mph 49 % 0.0 in 5.0 W/m2 OVC
21:24 28.5 °F 16.7 °F 1015.1 in East 3.7 mph 3.7 mph 49 % 0.0 in 5.0 W/m2 OVC
21:29 28.4 °F 16.9 °F 1015.1 in Calm     50 % 0.0 in 0.0 W/m2 OVC
21:34 28.3 °F 16.9 °F 1015.1 in Calm     50 % 0.0 in 0.0 W/m2 OVC
21:39 28.2 °F 16.8 °F 1015.1 in Calm     50 % 0.0 in 0.0 W/m2 OVC
21:41 28.2 °F 16.8 °F 1015.1 in Calm     50 % 0.0 in 0.0 W/m2 OVC
21:46 28.1 °F 16.9 °F 1015.1 in Calm     51 % 0.0 in 0.0 W/m2 CLR
21:51 27.9 °F 16.9 °F 1015.5 in Calm     51 % 0.0 in 0.0 W/m2 CLR
21:56 27.9 °F 17.1 °F 1015.5 in Calm     52 % 0.0 in 0.0 W/m2 CLR
22:01 27.8 °F 17.0 °F 1015.5 in Calm     52 % 0.0 in 0.0 W/m2 CLR
22:06 27.7 °F 16.9 °F 1015.8 in Calm     52 % 0.0 in 0.0 W/m2 CLR
22:11 27.6 °F 16.9 °F 1015.8 in Calm     52 % 0.0 in 0.0 W/m2 CLR
22:16 27.5 °F 16.8 °F 1015.8 in Calm     52 % 0.0 in 0.0 W/m2 CLR
22:21 27.4 °F 16.9 °F 1015.8 in Calm     53 % 0.0 in 0.0 W/m2 CLR
22:26 27.2 °F 16.8 °F 1015.8 in Calm     53 % 0.0 in 0.0 W/m2 CLR
22:31 27.0 °F 16.9 °F 1015.8 in Calm     54 % 0.0 in 0.0 W/m2 CLR
22:36 26.9 °F 16.8 °F 1016.1 in Calm     54 % 0.0 in 0.0 W/m2 CLR
22:41 26.9 °F 16.8 °F 1016.1 in Calm     54 % 0.0 in 0.0 W/m2 CLR
22:46 26.7 °F 16.7 °F 1016.1 in Calm     54 % 0.0 in 0.0 W/m2 CLR
22:51 26.5 °F 16.7 °F 1016.1 in Calm     55 % 0.0 in 0.0 W/m2 CLR
22:56 26.2 °F 16.4 °F 1016.1 in Calm     55 % 0.0 in 0.0 W/m2 CLR
23:01 25.9 °F 16.8 °F 1016.1 in Calm     57 % 0.0 in 0.0 W/m2 CLR
23:06 25.8 °F 16.3 °F 1016.5 in Calm     56 % 0.0 in 0.0 W/m2 CLR
23:11 25.4 °F 16.5 °F 1016.5 in Calm     58 % 0.0 in 0.0 W/m2 CLR
23:16 25.0 °F 16.2 °F 1016.5 in Calm     58 % 0.0 in 0.0 W/m2 CLR
23:21 24.7 °F 16.1 °F 1016.5 in Calm     59 % 0.0 in 0.0 W/m2 CLR
23:26 24.4 °F 16.1 °F 1016.5 in Calm     60 % 0.0 in 0.0 W/m2 CLR
23:31 24.1 °F 16.1 °F 1016.1 in Calm     61 % 0.0 in 0.0 W/m2 CLR
23:36 24.0 °F 16.3 °F 1016.5 in Calm     62 % 0.0 in 0.0 W/m2 CLR
23:41 23.9 °F 16.2 °F 1016.5 in Calm     62 % 0.0 in 0.0 W/m2 CLR
23:46 23.9 °F 16.4 °F 1016.5 in Calm     63 % 0.0 in 0.0 W/m2 CLR
23:51 23.9 °F 16.2 °F 1016.5 in Calm     62 % 0.0 in 0.0 W/m2 CLR
23:56 23.8 °F 16.1 °F 1016.5 in Calm     62 % 0.0 in 0.0 W/m2 CLR
Lo Temps de Massalio
Compliments of Weather Underground - 1.25 mb